Kezdőlap
METAR-TAF:

METAR-TAF

Repülőterek :

Csungking, Kína

földrajzi szélesség: 29-31N, földrajzi hosszúság: 106-29E, magasság: 351 m

Jelenlegi meteorológiai megfigyelések

A jelentés 16 perccel ezelõtt készült, 17:00 UTC
Déli szél 4 kt
Hőmérséklet 24°C
Páratartalom 94%
Légköri nyomás 1008 hPa
Látótávolság 10 km, vagy több
felhőtlen 1500 m magasságban, és nincs gomolyfelhõ

METAR: ZUCK 171700Z 17002MPS CAVOK 24/23 Q1008 NOSIG

Idő: 01:16 (17:16 UTC)

Előrejelzés

A jelentés 8 órával és 12 perccel ezelõtt készült, 09:04 UTC
Az előrejelzés 17-én 12 óra UTC és 18-én 12 óra UTC között érvényes
Észak-északkeleti szél 8 kt
Látótávolság: 6000 m
Szórványos felhőzet 4000 lábon
18-én 07 óra UTC és 18-én 09 óra UTC között ideiglenes
Kevés felhő 3000 lábon, Cumulonimbus.
Szakadozott felhőzet 5000 lábon
zivatar, esõ

TAF: ZUCK 170904Z 1712/1812 03004MPS 6000 SCT040 TX34/1808Z TN26/1721Z TEMPO 1807/1809 TSRA FEW030CB BKN050

Meteorológiai megfigyelések és előrejelzések több, mint 4000 repülőtéren (METAR és TAF jelentéseket).

A térképen piros és sárga pontok jelzik az elérhető meteorológiai állomásokat.

Mozgassa az egeret a pont fölött, hogy megjelenjen az állomás neve.

Azután kattintson az időjárási megfigyelések és előrejelzések megtekintéséhez.

A térkép megváltoztatása: kattintson a fekete keresztel jelölt zöld gombra ráközelítéshez, a vonallal jelölt zöld gombra távolításhoz, vagy a zöld nyilakra a szomszédos térképek eléréséhez.


METAR-TAF: